πŸ“Š DonnΓ©es MΓ©tΓ©o - Bordeaux

Total mesures

14,375

TempΓ©rature moyenne

18.8Β°C

Temp. Min/Max

2.9Β° / 42.4Β°

HumiditΓ© moyenne

64.9%

Pression moyenne

1014.7 hPa
enregistrements
ID Date/Heure Temp (Β°C) HumiditΓ© (%) Pression (hPa) Tendance LuminositΓ© (lux) Situation
12475 05/08/2026 14:45 29.3 42.0 1,017.9 β†’ Stable 61,200 conditions-neutrales-ou-non-definies
12474 05/08/2026 14:15 28.8 43.0 1,017.9 β†’ Stable 60,372 confortablement-chaud (approx.)
12473 05/08/2026 13:45 29.4 41.0 1,018.1 β†’ Stable 66,024 conditions-neutrales-ou-non-definies
12472 05/08/2026 13:15 28.9 42.0 1,018.4 β†’ Stable 78,240 confortablement-chaud
12471 05/08/2026 12:45 28.4 44.0 1,018.7 β†’ Stable 83,424 confortablement-chaud
12470 05/08/2026 12:15 27.2 48.0 1,018.7 β†’ Stable 41,940 confortablement-chaud (approx.)
12469 05/08/2026 11:45 26.9 49.0 1,018.5 β†’ Stable 36,756 confortablement-chaud (approx.)
12468 05/08/2026 11:15 27.9 47.0 1,018.5 β†’ Stable 83,700 confortablement-chaud
12467 05/08/2026 10:45 27.3 50.0 1,019.1 β†’ Stable 85,272 confortablement-chaud
12466 05/08/2026 10:15 25.9 58.0 1,019.1 β†’ Stable 59,532 confortablement-chaud (approx.)
12465 05/08/2026 09:45 25.3 62.0 1,018.8 β†’ Stable 56,664 confortablement-chaud (approx.)
12464 05/08/2026 09:15 24.8 64.0 1,018.8 β†’ Stable 57,684 confortablement-chaud (approx.)
12463 05/08/2026 08:45 24.5 66.0 1,018.6 β†’ Stable 53,796 confortablement-chaud (approx.)
12462 05/08/2026 08:15 23.6 71.0 1,018.6 β†’ Stable 37,032 pluvieux-gris (approx.)
12461 05/08/2026 07:45 23.4 75.0 1,018.5 β†’ Stable 34,164 pluvieux-gris (approx.)
12460 05/08/2026 07:15 21.9 84.0 1,018.5 β†’ Stable 12,588 pluvieux-gris (approx.)
12459 05/08/2026 06:45 21.4 86.0 1,018.1 β†’ Stable 9,996 pluvieux-gris (approx.)
12458 05/08/2026 06:15 20.6 91.0 1,018.1 β†’ Stable 2,772 pluvieux-gris (approx.)
12457 05/08/2026 05:45 20.3 93.0 1,018.0 β†’ Stable 1,476 pluvieux-gris (approx.)
12456 05/08/2026 05:15 20.2 92.0 1,018.0 β†’ Stable 468 pluvieux-gris (approx.)
12455 05/08/2026 04:45 20.0 93.0 1,017.8 β†’ Stable 0 pluvieux-gris (approx.)
12454 05/08/2026 04:15 20.0 93.0 1,017.8 β†’ Stable 0 pluvieux-gris (approx.)
12453 05/08/2026 03:45 20.2 91.0 1,017.9 β†’ Stable 0 pluvieux-gris (approx.)
12452 05/08/2026 03:15 20.3 91.0 1,017.9 β†’ Stable 0 pluvieux-gris (approx.)
12451 05/08/2026 02:45 20.3 91.0 1,017.7 β†’ Stable 0 pluvieux-gris (approx.)
12450 05/08/2026 02:15 20.4 91.0 1,017.7 β†’ Stable 0 pluvieux-gris (approx.)
12449 05/08/2026 01:45 20.5 91.0 1,017.5 β†’ Stable 0 pluvieux-gris (approx.)
12448 05/08/2026 01:15 20.7 89.0 1,017.7 β†’ Stable 0 pluvieux-gris (approx.)
12447 05/08/2026 00:45 20.8 88.0 1,017.7 β†’ Stable 0 pluvieux-gris (approx.)
12446 05/08/2026 00:15 21.1 88.0 1,017.7 β†’ Stable 0 pluvieux-gris (approx.)
12445 04/08/2026 23:45 21.3 85.0 1,017.5 β†’ Stable 0 pluvieux-gris (approx.)
12444 04/08/2026 23:15 21.6 84.0 1,017.5 β†’ Stable 0 pluvieux-gris (approx.)
12443 04/08/2026 22:45 22.0 81.0 1,017.4 β†’ Stable 0 pluvieux-gris (approx.)
12442 04/08/2026 22:15 22.5 80.0 1,017.4 β†’ Stable 0 pluvieux-gris (approx.)
12441 04/08/2026 21:45 22.9 77.0 1,016.8 β†’ Stable 0 pluvieux-gris (approx.)
12440 04/08/2026 21:15 23.3 76.0 1,016.8 β†’ Stable 0 pluvieux-gris (approx.)
12439 04/08/2026 20:45 23.7 74.0 1,015.9 β†’ Stable 0 pluvieux-gris (approx.)
12438 04/08/2026 20:15 24.4 66.0 1,015.9 β†’ Stable 0 confortablement-chaud (approx.)
12437 04/08/2026 19:45 25.2 62.0 1,015.2 β†’ Stable 0 confortablement-chaud (approx.)
12436 04/08/2026 19:15 26.1 58.0 1,015.2 β†’ Stable 2,316 confortablement-chaud (approx.)
12435 04/08/2026 18:45 26.8 55.0 1,014.8 β†’ Stable 8,616 confortablement-chaud (approx.)
12434 04/08/2026 18:15 27.5 55.0 1,014.8 β†’ Stable 13,056 confortablement-chaud (approx.)
12433 04/08/2026 17:45 28.3 52.0 1,014.4 β†’ Stable 17,964 confortablement-chaud (approx.)
12432 04/08/2026 17:15 28.8 50.0 1,014.4 β†’ Stable 32,592 confortablement-chaud (approx.)
12431 04/08/2026 16:45 29.4 48.0 1,014.0 β†’ Stable 42,132 conditions-neutrales-ou-non-definies
12430 04/08/2026 16:15 29.3 47.0 1,014.0 β†’ Stable 25,920 conditions-neutrales-ou-non-definies
12429 04/08/2026 15:45 29.4 46.0 1,013.6 β†’ Stable 25,188 conditions-neutrales-ou-non-definies
12428 04/08/2026 15:15 30.0 43.0 1,013.6 β†’ Stable 45,276 conditions-neutrales-ou-non-definies
12427 04/08/2026 14:45 31.0 39.0 1,013.7 β†’ Stable 53,796 chaleur-seche
12426 04/08/2026 14:15 30.5 40.0 1,013.7 β†’ Stable 54,348 conditions-neutrales-ou-non-definies
12425 04/08/2026 13:45 30.6 40.0 1,013.6 β†’ Stable 58,704 conditions-neutrales-ou-non-definies
12424 04/08/2026 13:15 30.0 42.0 1,013.9 β†’ Stable 72,408 confortablement-chaud (approx.)
12423 04/08/2026 12:45 30.2 42.0 1,014.0 β†’ Stable 80,004 confortablement-chaud (approx.)
12422 04/08/2026 12:15 29.9 42.0 1,014.0 β†’ Stable 99,072 confortablement-chaud (approx.)
12421 04/08/2026 11:45 29.3 44.0 1,014.0 β†’ Stable 101,112 confortablement-chaud (approx.)
12420 04/08/2026 11:15 28.5 46.0 1,014.0 β†’ Stable 100,560 confortablement-chaud
12419 04/08/2026 10:45 27.8 49.0 1,014.3 β†’ Stable 97,128 confortablement-chaud
12418 04/08/2026 10:15 27.2 50.0 1,014.3 β†’ Stable 89,904 confortablement-chaud
12417 04/08/2026 09:45 26.4 54.0 1,014.1 β†’ Stable 83,700 confortablement-chaud
12416 04/08/2026 09:15 25.6 58.0 1,014.1 β†’ Stable 73,608 confortablement-chaud
12415 04/08/2026 08:45 24.7 62.0 1,013.9 β†’ Stable 66,204 confortablement-chaud (approx.)
12414 04/08/2026 08:15 23.5 68.0 1,013.9 β†’ Stable 47,772 conditions-neutrales-ou-non-definies
12413 04/08/2026 07:45 22.8 72.0 1,013.5 β†’ Stable 39,264 pluvieux-gris (approx.)
12412 04/08/2026 07:15 21.5 78.0 1,013.5 β†’ Stable 27,780 pluvieux-gris (approx.)
12411 04/08/2026 06:45 20.8 84.0 1,013.3 β†’ Stable 20,736 pluvieux-gris (approx.)
12410 04/08/2026 06:15 20.1 86.0 1,013.3 β†’ Stable 12,036 pluvieux-gris (approx.)
12409 04/08/2026 06:00 19.8 88.0 1,013.3 β†’ Stable 8,616 pluvieux-gris (approx.)
12408 04/08/2026 05:45 19.7 89.0 1,012.5 β†’ Stable 6,204 pluvieux-gris (approx.)
12407 04/08/2026 05:15 20.1 87.0 1,012.6 β†’ Stable 1,476 pluvieux-gris (approx.)
12406 04/08/2026 04:45 19.9 88.0 1,012.2 β†’ Stable 0 pluvieux-gris (approx.)
12405 04/08/2026 04:15 19.7 88.0 1,012.2 β†’ Stable 0 pluvieux-gris (approx.)
12404 04/08/2026 03:45 19.8 88.0 1,012.2 β†’ Stable 0 pluvieux-gris (approx.)
12403 04/08/2026 03:15 20.0 87.0 1,012.2 β†’ Stable 0 pluvieux-gris (approx.)
12402 04/08/2026 02:45 20.3 86.0 1,011.7 β†’ Stable 0 pluvieux-gris (approx.)
12401 04/08/2026 02:15 20.5 86.0 1,011.7 β†’ Stable 0 pluvieux-gris (approx.)
12400 04/08/2026 01:45 20.6 87.0 1,011.4 β†’ Stable 0 pluvieux-gris (approx.)
12399 04/08/2026 01:15 20.6 87.0 1,011.3 β†’ Stable 0 pluvieux-gris (approx.)
12398 04/08/2026 00:45 20.8 87.0 1,011.4 β†’ Stable 0 pluvieux-gris (approx.)
12397 04/08/2026 00:15 21.1 85.0 1,011.4 β†’ Stable 0 pluvieux-gris (approx.)
12396 03/08/2026 23:45 21.3 84.0 1,011.3 β†’ Stable 0 pluvieux-gris (approx.)
12395 03/08/2026 23:15 21.6 82.0 1,011.3 β†’ Stable 0 pluvieux-gris (approx.)
12394 03/08/2026 22:45 22.0 79.0 1,011.1 β†’ Stable 0 pluvieux-gris (approx.)
12393 03/08/2026 22:15 22.0 79.0 1,011.1 β†’ Stable 0 pluvieux-gris (approx.)
12392 03/08/2026 21:45 22.4 77.0 1,010.6 β†’ Stable 0 pluvieux-gris (approx.)
12391 03/08/2026 21:15 22.7 73.0 1,010.6 β†’ Stable 0 pluvieux-gris (approx.)
12390 03/08/2026 20:45 23.0 72.0 1,009.9 β†’ Stable 0 pluvieux-gris (approx.)
12389 03/08/2026 20:15 23.6 69.0 1,009.9 β†’ Stable 0 conditions-neutrales-ou-non-definies
12388 03/08/2026 19:45 24.1 69.0 1,008.9 β†’ Stable 0 confortablement-chaud (approx.)
12387 03/08/2026 19:15 25.1 63.0 1,008.9 β†’ Stable 2,412 confortablement-chaud (approx.)
12386 03/08/2026 18:45 26.4 60.0 1,008.7 β†’ Stable 8,148 confortablement-chaud (approx.)
12385 03/08/2026 18:15 26.8 57.0 1,008.7 β†’ Stable 12,960 confortablement-chaud (approx.)
12384 03/08/2026 17:45 27.5 55.0 1,008.3 β†’ Stable 20,280 confortablement-chaud (approx.)
12383 03/08/2026 17:15 29.3 50.0 1,008.3 β†’ Stable 30,744 conditions-neutrales-ou-non-definies
12382 03/08/2026 16:45 30.2 47.0 1,007.9 β†’ Stable 40,740 conditions-neutrales-ou-non-definies
12381 03/08/2026 16:15 31.7 42.0 1,007.9 β†’ Stable 50,004 conditions-neutrales-ou-non-definies
12380 03/08/2026 15:45 31.2 45.0 1,007.8 β†’ Stable 58,800 conditions-neutrales-ou-non-definies
12379 03/08/2026 15:15 31.6 42.0 1,007.8 β†’ Stable 56,940 conditions-neutrales-ou-non-definies
12378 03/08/2026 14:45 31.2 45.0 1,008.3 β†’ Stable 59,628 conditions-neutrales-ou-non-definies
12377 03/08/2026 14:15 30.7 48.0 1,008.3 β†’ Stable 57,960 conditions-neutrales-ou-non-definies
12376 03/08/2026 13:45 30.4 50.0 1,008.4 β†’ Stable 63,888 conditions-neutrales-ou-non-definies